Nome, Alaska
Current Conditions -  °F | °C
As of 5:53 PM on Friday 19 Dec 2014 (Local Time) from PAOM Reporting Station
Scattered Clouds Scattered Clouds  
Wind Chill: -11°   Ceiling: Unl
Heat Index: -11°   Visibility: 10mi
Dew Point: -16°   Wind: 0mph
Humidity: 70%   Direction: NA
Pressure: 29.31"   Gusts: NA
Location:  64.5°N, 165.41°W
Report Text: PAOM 200253Z 00000KT 10SM FEW110 SCT200 M11/M16 A2931 RMK SLP925 T11111156 56001 $ VIA AUTODIAL
Loading
Personal Weather Stations






























Interactive Weather Map New forecast layout! Learn more

10-Day Weather Forecast

Advertisements
Track Severe Weather on mobile